sensor_id;sensor_type;location;lat;lon;timestamp;P1;durP1;ratioP1;P2;durP2;ratioP2
50880;SDS011;36858;47.832;-3.800;2022-12-05T00:01:21;21.07;;;12.50;;
50880;SDS011;36858;47.832;-3.800;2022-12-05T00:03:49;21.87;;;13.30;;
50880;SDS011;36858;47.832;-3.800;2022-12-05T00:06:17;19.13;;;12.10;;
50880;SDS011;36858;47.832;-3.800;2022-12-05T00:08:44;18.80;;;12.37;;
50880;SDS011;36858;47.832;-3.800;2022-12-05T00:11:15;21.03;;;11.63;;
50880;SDS011;36858;47.832;-3.800;2022-12-05T00:13:44;16.13;;;11.20;;
50880;SDS011;36858;47.832;-3.800;2022-12-05T00:16:13;20.33;;;12.93;;
50880;SDS011;36858;47.832;-3.800;2022-12-05T00:18:41;18.30;;;11.87;;
50880;SDS011;36858;47.832;-3.800;2022-12-05T00:21:16;21.47;;;12.13;;
50880;SDS011;36858;47.832;-3.800;2022-12-05T00:23:44;21.30;;;12.40;;
50880;SDS011;36858;47.832;-3.800;2022-12-05T00:26:11;16.50;;;10.90;;
50880;SDS011;36858;47.832;-3.800;2022-12-05T00:28:39;18.83;;;11.80;;
50880;SDS011;36858;47.832;-3.800;2022-12-05T00:31:07;19.90;;;12.17;;
50880;SDS011;36858;47.832;-3.800;2022-12-05T00:33:36;17.73;;;11.47;;
50880;SDS011;36858;47.832;-3.800;2022-12-05T00:36:07;17.77;;;11.37;;
50880;SDS011;36858;47.832;-3.800;2022-12-05T00:38:35;16.90;;;10.87;;
50880;SDS011;36858;47.832;-3.800;2022-12-05T00:41:03;19.03;;;11.67;;
50880;SDS011;36858;47.832;-3.800;2022-12-05T00:43:34;18.47;;;11.20;;
50880;SDS011;36858;47.832;-3.800;2022-12-05T00:46:02;16.97;;;10.97;;
50880;SDS011;36858;47.832;-3.800;2022-12-05T00:48:32;19.83;;;11.77;;
50880;SDS011;36858;47.832;-3.800;2022-12-05T00:51:04;17.57;;;12.60;;
50880;SDS011;36858;47.832;-3.800;2022-12-05T00:53:35;17.50;;;11.30;;
50880;SDS011;36858;47.832;-3.800;2022-12-05T00:56:02;18.67;;;11.73;;
50880;SDS011;36858;47.832;-3.800;2022-12-05T00:58:34;19.87;;;12.07;;
50880;SDS011;36858;47.832;-3.800;2022-12-05T01:01:45;19.50;;;12.37;;
50880;SDS011;36858;47.832;-3.800;2022-12-05T01:03:58;17.57;;;11.37;;
50880;SDS011;36858;47.832;-3.800;2022-12-05T01:06:27;20.27;;;12.03;;
50880;SDS011;36858;47.832;-3.800;2022-12-05T01:08:54;17.53;;;11.40;;
50880;SDS011;36858;47.832;-3.800;2022-12-05T01:11:22;18.33;;;11.53;;
50880;SDS011;36858;47.832;-3.800;2022-12-05T01:13:49;17.50;;;10.90;;
50880;SDS011;36858;47.832;-3.800;2022-12-05T01:16:27;17.63;;;11.30;;
50880;SDS011;36858;47.832;-3.800;2022-12-05T01:18:56;17.13;;;11.43;;
50880;SDS011;36858;47.832;-3.800;2022-12-05T01:21:24;17.47;;;11.33;;
50880;SDS011;36858;47.832;-3.800;2022-12-05T01:23:51;17.33;;;11.33;;
50880;SDS011;36858;47.832;-3.800;2022-12-05T01:26:19;15.90;;;10.83;;
50880;SDS011;36858;47.832;-3.800;2022-12-05T01:28:47;18.47;;;11.50;;
50880;SDS011;36858;47.832;-3.800;2022-12-05T01:31:25;19.60;;;11.40;;
50880;SDS011;36858;47.832;-3.800;2022-12-05T01:33:54;19.17;;;12.40;;
50880;SDS011;36858;47.832;-3.800;2022-12-05T01:36:22;18.80;;;11.97;;
50880;SDS011;36858;47.832;-3.800;2022-12-05T01:38:51;18.80;;;11.73;;
50880;SDS011;36858;47.832;-3.800;2022-12-05T01:41:25;19.13;;;11.50;;
50880;SDS011;36858;47.832;-3.800;2022-12-05T01:46:35;21.50;;;10.67;;
50880;SDS011;36858;47.832;-3.800;2022-12-05T01:51:32;17.33;;;10.63;;
50880;SDS011;36858;47.832;-3.800;2022-12-05T01:54:00;20.00;;;11.97;;
50880;SDS011;36858;47.832;-3.800;2022-12-05T01:56:27;21.30;;;12.27;;
50880;SDS011;36858;47.832;-3.800;2022-12-05T01:58:54;15.13;;;10.33;;
50880;SDS011;36858;47.832;-3.800;2022-12-05T02:01:22;20.17;;;11.77;;
50880;SDS011;36858;47.832;-3.800;2022-12-05T02:03:49;15.83;;;10.87;;
50880;SDS011;36858;47.832;-3.800;2022-12-05T02:06:18;18.27;;;11.97;;
50880;SDS011;36858;47.832;-3.800;2022-12-05T02:08:46;17.13;;;10.50;;
50880;SDS011;36858;47.832;-3.800;2022-12-05T02:11:13;17.20;;;10.43;;
50880;SDS011;36858;47.832;-3.800;2022-12-05T02:13:43;15.63;;;10.47;;
50880;SDS011;36858;47.832;-3.800;2022-12-05T02:24:34;15.57;;;9.57;;
50880;SDS011;36858;47.832;-3.800;2022-12-05T02:30:15;16.03;;;10.07;;
50880;SDS011;36858;47.832;-3.800;2022-12-05T02:40:59;16.13;;;10.43;;
50880;SDS011;36858;47.832;-3.800;2022-12-05T02:43:43;14.17;;;9.90;;
50880;SDS011;36858;47.832;-3.800;2022-12-05T02:46:25;17.20;;;10.60;;
50880;SDS011;36858;47.832;-3.800;2022-12-05T02:48:56;16.40;;;10.03;;
50880;SDS011;36858;47.832;-3.800;2022-12-05T02:51:27;16.83;;;10.40;;
50880;SDS011;36858;47.832;-3.800;2022-12-05T02:53:56;16.37;;;10.53;;
50880;SDS011;36858;47.832;-3.800;2022-12-05T02:56:25;16.97;;;10.03;;
50880;SDS011;36858;47.832;-3.800;2022-12-05T02:58:53;16.77;;;10.20;;
50880;SDS011;36858;47.832;-3.800;2022-12-05T03:01:22;19.83;;;10.77;;
50880;SDS011;36858;47.832;-3.800;2022-12-05T03:03:51;17.10;;;10.27;;
50880;SDS011;36858;47.832;-3.800;2022-12-05T03:08:58;15.67;;;10.27;;
50880;SDS011;36858;47.832;-3.800;2022-12-05T03:11:29;16.07;;;10.00;;
50880;SDS011;36858;47.832;-3.800;2022-12-05T03:13:59;19.53;;;10.60;;
50880;SDS011;36858;47.832;-3.800;2022-12-05T03:16:33;17.17;;;11.20;;
50880;SDS011;36858;47.832;-3.800;2022-12-05T03:19:11;15.73;;;10.07;;
50880;SDS011;36858;47.832;-3.800;2022-12-05T03:21:48;16.50;;;10.10;;
50880;SDS011;36858;47.832;-3.800;2022-12-05T03:24:18;15.83;;;9.97;;
50880;SDS011;36858;47.832;-3.800;2022-12-05T03:26:52;15.47;;;9.80;;
50880;SDS011;36858;47.832;-3.800;2022-12-05T03:29:56;18.57;;;10.43;;
50880;SDS011;36858;47.832;-3.800;2022-12-05T03:42:55;17.87;;;9.70;;
50880;SDS011;36858;47.832;-3.800;2022-12-05T03:45:33;17.53;;;11.13;;
50880;SDS011;36858;47.832;-3.800;2022-12-05T03:48:14;16.93;;;10.50;;
50880;SDS011;36858;47.832;-3.800;2022-12-05T03:50:45;19.20;;;10.47;;
50880;SDS011;36858;47.832;-3.800;2022-12-05T03:53:24;18.80;;;10.53;;
50880;SDS011;36858;47.832;-3.800;2022-12-05T03:56:40;17.73;;;11.40;;
50880;SDS011;36858;47.832;-3.800;2022-12-05T03:58:57;16.27;;;9.83;;
50880;SDS011;36858;47.832;-3.800;2022-12-05T04:01:28;17.93;;;10.70;;
50880;SDS011;36858;47.832;-3.800;2022-12-05T04:03:58;16.70;;;10.67;;
50880;SDS011;36858;47.832;-3.800;2022-12-05T04:06:32;18.87;;;12.00;;
50880;SDS011;36858;47.832;-3.800;2022-12-05T04:09:08;18.83;;;10.70;;
50880;SDS011;36858;47.832;-3.800;2022-12-05T04:11:44;18.47;;;11.50;;
50880;SDS011;36858;47.832;-3.800;2022-12-05T04:14:16;18.50;;;11.17;;
50880;SDS011;36858;47.832;-3.800;2022-12-05T04:16:48;17.43;;;10.53;;
50880;SDS011;36858;47.832;-3.800;2022-12-05T04:22:20;17.97;;;10.67;;
50880;SDS011;36858;47.832;-3.800;2022-12-05T04:24:49;22.53;;;11.73;;
50880;SDS011;36858;47.832;-3.800;2022-12-05T04:30:09;19.30;;;10.87;;
50880;SDS011;36858;47.832;-3.800;2022-12-05T04:35:23;21.93;;;11.30;;
50880;SDS011;36858;47.832;-3.800;2022-12-05T04:37:54;20.00;;;11.90;;
50880;SDS011;36858;47.832;-3.800;2022-12-05T04:40:31;18.90;;;11.03;;
50880;SDS011;36858;47.832;-3.800;2022-12-05T04:43:01;20.43;;;11.83;;
50880;SDS011;36858;47.832;-3.800;2022-12-05T04:45:28;21.50;;;11.70;;
50880;SDS011;36858;47.832;-3.800;2022-12-05T04:47:57;19.33;;;10.67;;
50880;SDS011;36858;47.832;-3.800;2022-12-05T04:50:27;19.83;;;11.87;;
50880;SDS011;36858;47.832;-3.800;2022-12-05T04:52:56;17.33;;;10.87;;
50880;SDS011;36858;47.832;-3.800;2022-12-05T04:55:25;18.63;;;10.83;;
50880;SDS011;36858;47.832;-3.800;2022-12-05T04:58:11;19.20;;;11.20;;
50880;SDS011;36858;47.832;-3.800;2022-12-05T05:00:52;19.43;;;11.63;;
50880;SDS011;36858;47.832;-3.800;2022-12-05T05:03:26;23.97;;;13.10;;
50880;SDS011;36858;47.832;-3.800;2022-12-05T05:05:57;21.83;;;12.03;;
50880;SDS011;36858;47.832;-3.800;2022-12-05T05:08:25;21.40;;;11.13;;
50880;SDS011;36858;47.832;-3.800;2022-12-05T05:11:28;20.80;;;12.10;;
50880;SDS011;36858;47.832;-3.800;2022-12-05T05:13:49;21.73;;;12.90;;
50880;SDS011;36858;47.832;-3.800;2022-12-05T05:16:21;17.27;;;10.43;;
50880;SDS011;36858;47.832;-3.800;2022-12-05T05:18:51;20.17;;;10.87;;
50880;SDS011;36858;47.832;-3.800;2022-12-05T05:21:25;24.37;;;13.50;;
50880;SDS011;36858;47.832;-3.800;2022-12-05T05:23:53;21.87;;;12.07;;
50880;SDS011;36858;47.832;-3.800;2022-12-05T05:26:20;21.83;;;12.00;;
50880;SDS011;36858;47.832;-3.800;2022-12-05T05:28:48;19.83;;;11.67;;
50880;SDS011;36858;47.832;-3.800;2022-12-05T05:31:16;19.33;;;11.10;;
50880;SDS011;36858;47.832;-3.800;2022-12-05T05:33:47;22.50;;;12.67;;
50880;SDS011;36858;47.832;-3.800;2022-12-05T05:36:18;22.73;;;12.30;;
50880;SDS011;36858;47.832;-3.800;2022-12-05T05:38:46;19.27;;;11.50;;
50880;SDS011;36858;47.832;-3.800;2022-12-05T05:41:19;20.83;;;11.93;;
50880;SDS011;36858;47.832;-3.800;2022-12-05T05:43:48;22.57;;;11.67;;
50880;SDS011;36858;47.832;-3.800;2022-12-05T05:46:16;20.40;;;11.57;;
50880;SDS011;36858;47.832;-3.800;2022-12-05T05:48:44;20.20;;;11.23;;
50880;SDS011;36858;47.832;-3.800;2022-12-05T05:51:12;15.23;;;10.00;;
50880;SDS011;36858;47.832;-3.800;2022-12-05T05:53:40;19.47;;;12.07;;
50880;SDS011;36858;47.832;-3.800;2022-12-05T05:56:08;19.47;;;11.67;;
50880;SDS011;36858;47.832;-3.800;2022-12-05T05:58:45;17.70;;;10.73;;
50880;SDS011;36858;47.832;-3.800;2022-12-05T06:01:17;19.63;;;10.97;;
50880;SDS011;36858;47.832;-3.800;2022-12-05T06:03:45;17.73;;;11.13;;
50880;SDS011;36858;47.832;-3.800;2022-12-05T06:06:13;22.00;;;11.13;;
50880;SDS011;36858;47.832;-3.800;2022-12-05T06:08:41;19.97;;;11.80;;
50880;SDS011;36858;47.832;-3.800;2022-12-05T06:11:10;18.47;;;11.07;;
50880;SDS011;36858;47.832;-3.800;2022-12-05T06:13:38;18.40;;;10.83;;
50880;SDS011;36858;47.832;-3.800;2022-12-05T06:16:06;21.50;;;11.03;;
50880;SDS011;36858;47.832;-3.800;2022-12-05T06:18:34;20.97;;;11.80;;
50880;SDS011;36858;47.832;-3.800;2022-12-05T06:21:01;22.27;;;11.90;;
50880;SDS011;36858;47.832;-3.800;2022-12-05T06:23:29;21.27;;;11.73;;
50880;SDS011;36858;47.832;-3.800;2022-12-05T06:25:56;21.00;;;12.83;;
50880;SDS011;36858;47.832;-3.800;2022-12-05T06:28:23;19.57;;;10.90;;
50880;SDS011;36858;47.832;-3.800;2022-12-05T06:30:51;21.47;;;12.00;;
50880;SDS011;36858;47.832;-3.800;2022-12-05T06:33:18;23.00;;;10.90;;
50880;SDS011;36858;47.832;-3.800;2022-12-05T06:35:46;18.90;;;10.47;;
50880;SDS011;36858;47.832;-3.800;2022-12-05T06:38:12;19.17;;;10.53;;
50880;SDS011;36858;47.832;-3.800;2022-12-05T06:40:43;21.70;;;10.90;;
50880;SDS011;36858;47.832;-3.800;2022-12-05T06:43:10;20.30;;;10.83;;
50880;SDS011;36858;47.832;-3.800;2022-12-05T06:45:37;18.17;;;10.97;;
50880;SDS011;36858;47.832;-3.800;2022-12-05T06:48:05;20.97;;;11.20;;
50880;SDS011;36858;47.832;-3.800;2022-12-05T06:50:32;22.00;;;11.80;;
50880;SDS011;36858;47.832;-3.800;2022-12-05T06:52:59;18.87;;;10.77;;
50880;SDS011;36858;47.832;-3.800;2022-12-05T06:55:26;19.00;;;10.73;;
50880;SDS011;36858;47.832;-3.800;2022-12-05T06:57:53;18.93;;;10.87;;
50880;SDS011;36858;47.832;-3.800;2022-12-05T07:00:20;19.27;;;10.83;;
50880;SDS011;36858;47.832;-3.800;2022-12-05T07:03:05;20.70;;;10.33;;
50880;SDS011;36858;47.832;-3.800;2022-12-05T07:05:32;20.10;;;11.23;;
50880;SDS011;36858;47.832;-3.800;2022-12-05T07:07:59;17.90;;;10.27;;
50880;SDS011;36858;47.832;-3.800;2022-12-05T07:10:26;17.63;;;10.03;;
50880;SDS011;36858;47.832;-3.800;2022-12-05T07:12:53;19.53;;;10.20;;
50880;SDS011;36858;47.832;-3.800;2022-12-05T07:15:19;16.57;;;9.90;;
50880;SDS011;36858;47.832;-3.800;2022-12-05T07:17:46;21.80;;;10.87;;
50880;SDS011;36858;47.832;-3.800;2022-12-05T07:20:13;17.60;;;10.60;;
50880;SDS011;36858;47.832;-3.800;2022-12-05T07:22:43;18.50;;;10.30;;
50880;SDS011;36858;47.832;-3.800;2022-12-05T07:25:11;17.07;;;9.73;;
50880;SDS011;36858;47.832;-3.800;2022-12-05T07:27:38;17.93;;;10.90;;
50880;SDS011;36858;47.832;-3.800;2022-12-05T07:30:05;16.07;;;10.00;;
50880;SDS011;36858;47.832;-3.800;2022-12-05T07:32:32;20.67;;;10.90;;
50880;SDS011;36858;47.832;-3.800;2022-12-05T07:34:59;21.90;;;12.03;;
50880;SDS011;36858;47.832;-3.800;2022-12-05T07:37:26;18.47;;;11.20;;
50880;SDS011;36858;47.832;-3.800;2022-12-05T07:39:53;18.57;;;10.13;;
50880;SDS011;36858;47.832;-3.800;2022-12-05T07:42:20;18.23;;;11.07;;
50880;SDS011;36858;47.832;-3.800;2022-12-05T07:44:47;18.17;;;10.47;;
50880;SDS011;36858;47.832;-3.800;2022-12-05T07:47:14;20.67;;;10.83;;
50880;SDS011;36858;47.832;-3.800;2022-12-05T07:49:41;17.17;;;10.37;;
50880;SDS011;36858;47.832;-3.800;2022-12-05T07:52:08;19.53;;;11.13;;
50880;SDS011;36858;47.832;-3.800;2022-12-05T07:54:35;21.00;;;11.57;;
50880;SDS011;36858;47.832;-3.800;2022-12-05T07:57:02;21.60;;;11.50;;
50880;SDS011;36858;47.832;-3.800;2022-12-05T07:59:29;18.03;;;11.07;;
50880;SDS011;36858;47.832;-3.800;2022-12-05T08:01:56;18.03;;;10.50;;
50880;SDS011;36858;47.832;-3.800;2022-12-05T08:04:23;20.37;;;10.87;;
50880;SDS011;36858;47.832;-3.800;2022-12-05T08:06:50;18.17;;;11.20;;
50880;SDS011;36858;47.832;-3.800;2022-12-05T08:09:17;19.37;;;10.60;;
50880;SDS011;36858;47.832;-3.800;2022-12-05T08:11:44;21.73;;;11.27;;
50880;SDS011;36858;47.832;-3.800;2022-12-05T08:14:17;18.00;;;10.33;;
50880;SDS011;36858;47.832;-3.800;2022-12-05T08:16:44;18.80;;;10.13;;
50880;SDS011;36858;47.832;-3.800;2022-12-05T08:19:12;20.30;;;11.03;;
50880;SDS011;36858;47.832;-3.800;2022-12-05T08:21:39;17.60;;;9.87;;
50880;SDS011;36858;47.832;-3.800;2022-12-05T08:24:06;17.63;;;10.53;;
50880;SDS011;36858;47.832;-3.800;2022-12-05T08:26:34;20.77;;;11.97;;
50880;SDS011;36858;47.832;-3.800;2022-12-05T08:29:05;17.27;;;10.10;;
50880;SDS011;36858;47.832;-3.800;2022-12-05T08:31:41;17.27;;;9.97;;
50880;SDS011;36858;47.832;-3.800;2022-12-05T08:34:10;19.77;;;10.97;;
50880;SDS011;36858;47.832;-3.800;2022-12-05T08:36:38;20.23;;;11.03;;
50880;SDS011;36858;47.832;-3.800;2022-12-05T08:39:05;21.83;;;11.83;;
50880;SDS011;36858;47.832;-3.800;2022-12-05T08:41:33;19.20;;;11.00;;
50880;SDS011;36858;47.832;-3.800;2022-12-05T08:44:03;20.30;;;10.73;;
50880;SDS011;36858;47.832;-3.800;2022-12-05T08:46:32;19.40;;;11.63;;
50880;SDS011;36858;47.832;-3.800;2022-12-05T08:49:01;18.50;;;10.20;;
50880;SDS011;36858;47.832;-3.800;2022-12-05T08:51:28;19.30;;;10.87;;
50880;SDS011;36858;47.832;-3.800;2022-12-05T08:53:55;20.70;;;11.13;;
50880;SDS011;36858;47.832;-3.800;2022-12-05T08:56:23;21.87;;;11.17;;
50880;SDS011;36858;47.832;-3.800;2022-12-05T08:58:53;23.20;;;11.47;;
50880;SDS011;36858;47.832;-3.800;2022-12-05T09:01:28;18.23;;;10.20;;
50880;SDS011;36858;47.832;-3.800;2022-12-05T09:03:58;19.53;;;10.87;;
50880;SDS011;36858;47.832;-3.800;2022-12-05T09:06:30;19.13;;;10.40;;
50880;SDS011;36858;47.832;-3.800;2022-12-05T09:08:58;20.30;;;11.13;;
50880;SDS011;36858;47.832;-3.800;2022-12-05T09:11:28;20.83;;;11.23;;
50880;SDS011;36858;47.832;-3.800;2022-12-05T09:13:58;19.07;;;10.73;;
50880;SDS011;36858;47.832;-3.800;2022-12-05T09:16:27;17.80;;;10.87;;
50880;SDS011;36858;47.832;-3.800;2022-12-05T09:19:02;19.67;;;10.80;;
50880;SDS011;36858;47.832;-3.800;2022-12-05T09:21:29;20.20;;;11.17;;
50880;SDS011;36858;47.832;-3.800;2022-12-05T09:23:57;22.00;;;11.37;;
50880;SDS011;36858;47.832;-3.800;2022-12-05T09:26:25;22.70;;;12.40;;
50880;SDS011;36858;47.832;-3.800;2022-12-05T09:28:53;20.63;;;12.23;;
50880;SDS011;36858;47.832;-3.800;2022-12-05T09:31:20;23.20;;;13.43;;
50880;SDS011;36858;47.832;-3.800;2022-12-05T09:33:49;27.10;;;15.43;;
50880;SDS011;36858;47.832;-3.800;2022-12-05T09:36:18;22.63;;;14.40;;
50880;SDS011;36858;47.832;-3.800;2022-12-05T09:38:46;22.77;;;12.93;;
50880;SDS011;36858;47.832;-3.800;2022-12-05T09:44:22;19.27;;;11.10;;
50880;SDS011;36858;47.832;-3.800;2022-12-05T09:47:01;18.93;;;11.07;;
50880;SDS011;36858;47.832;-3.800;2022-12-05T09:49:29;18.87;;;11.03;;
50880;SDS011;36858;47.832;-3.800;2022-12-05T09:51:57;22.30;;;13.03;;
50880;SDS011;36858;47.832;-3.800;2022-12-05T09:54:26;20.77;;;11.27;;
50880;SDS011;36858;47.832;-3.800;2022-12-05T09:56:54;20.63;;;11.63;;
50880;SDS011;36858;47.832;-3.800;2022-12-05T09:59:20;20.63;;;11.77;;
50880;SDS011;36858;47.832;-3.800;2022-12-05T10:05:11;18.60;;;10.73;;
50880;SDS011;36858;47.832;-3.800;2022-12-05T10:14:39;18.10;;;11.17;;
50880;SDS011;36858;47.832;-3.800;2022-12-05T10:16:47;17.93;;;10.50;;
50880;SDS011;36858;47.832;-3.800;2022-12-05T10:19:24;17.53;;;10.33;;
50880;SDS011;36858;47.832;-3.800;2022-12-05T10:22:08;18.53;;;10.50;;
50880;SDS011;36858;47.832;-3.800;2022-12-05T10:24:46;18.40;;;10.03;;
50880;SDS011;36858;47.832;-3.800;2022-12-05T10:27:23;16.63;;;10.13;;
50880;SDS011;36858;47.832;-3.800;2022-12-05T10:30:06;18.83;;;10.70;;
50880;SDS011;36858;47.832;-3.800;2022-12-05T10:32:50;17.73;;;11.00;;
50880;SDS011;36858;47.832;-3.800;2022-12-05T10:35:31;19.03;;;11.07;;
50880;SDS011;36858;47.832;-3.800;2022-12-05T10:38:03;18.63;;;10.33;;
50880;SDS011;36858;47.832;-3.800;2022-12-05T10:40:43;19.40;;;10.00;;
50880;SDS011;36858;47.832;-3.800;2022-12-05T10:43:12;16.97;;;9.60;;
50880;SDS011;36858;47.832;-3.800;2022-12-05T10:45:40;19.27;;;10.03;;
50880;SDS011;36858;47.832;-3.800;2022-12-05T10:48:13;17.37;;;10.20;;
50880;SDS011;36858;47.832;-3.800;2022-12-05T10:50:42;21.40;;;10.70;;
50880;SDS011;36858;47.832;-3.800;2022-12-05T10:53:35;19.47;;;10.03;;
50880;SDS011;36858;47.832;-3.800;2022-12-05T10:56:53;21.03;;;10.30;;
50880;SDS011;36858;47.832;-3.800;2022-12-05T10:59:05;17.23;;;9.37;;
50880;SDS011;36858;47.832;-3.800;2022-12-05T11:01:35;17.33;;;9.87;;
50880;SDS011;36858;47.832;-3.800;2022-12-05T11:04:06;16.67;;;9.87;;
50880;SDS011;36858;47.832;-3.800;2022-12-05T11:07:02;18.87;;;9.37;;
50880;SDS011;36858;47.832;-3.800;2022-12-05T11:09:31;16.57;;;9.10;;
50880;SDS011;36858;47.832;-3.800;2022-12-05T11:12:05;17.23;;;9.40;;
50880;SDS011;36858;47.832;-3.800;2022-12-05T11:15:02;16.93;;;9.57;;
50880;SDS011;36858;47.832;-3.800;2022-12-05T11:17:41;17.77;;;9.47;;
50880;SDS011;36858;47.832;-3.800;2022-12-05T11:22:41;16.73;;;9.60;;
50880;SDS011;36858;47.832;-3.800;2022-12-05T11:25:31;17.60;;;10.07;;
50880;SDS011;36858;47.832;-3.800;2022-12-05T11:28:45;17.60;;;9.17;;
50880;SDS011;36858;47.832;-3.800;2022-12-05T11:30:56;13.80;;;9.23;;
50880;SDS011;36858;47.832;-3.800;2022-12-05T11:33:25;16.70;;;9.17;;
50880;SDS011;36858;47.832;-3.800;2022-12-05T11:36:05;16.93;;;9.00;;
50880;SDS011;36858;47.832;-3.800;2022-12-05T11:38:40;17.80;;;9.30;;
50880;SDS011;36858;47.832;-3.800;2022-12-05T11:49:36;14.33;;;8.17;;
50880;SDS011;36858;47.832;-3.800;2022-12-05T11:52:25;14.03;;;8.57;;
50880;SDS011;36858;47.832;-3.800;2022-12-05T12:06:47;16.50;;;8.57;;
50880;SDS011;36858;47.832;-3.800;2022-12-05T12:09:48;15.23;;;8.30;;
50880;SDS011;36858;47.832;-3.800;2022-12-05T12:12:41;14.60;;;8.07;;
50880;SDS011;36858;47.832;-3.800;2022-12-05T12:20:51;14.47;;;7.70;;
50880;SDS011;36858;47.832;-3.800;2022-12-05T12:26:13;15.23;;;8.20;;
50880;SDS011;36858;47.832;-3.800;2022-12-05T12:29:08;15.13;;;8.27;;
50880;SDS011;36858;47.832;-3.800;2022-12-05T12:40:45;13.47;;;8.40;;
50880;SDS011;36858;47.832;-3.800;2022-12-05T12:43:31;16.33;;;8.70;;
50880;SDS011;36858;47.832;-3.800;2022-12-05T12:52:04;13.10;;;7.63;;
50880;SDS011;36858;47.832;-3.800;2022-12-05T12:57:38;13.50;;;8.50;;
50880;SDS011;36858;47.832;-3.800;2022-12-05T13:06:22;14.23;;;7.53;;
50880;SDS011;36858;47.832;-3.800;2022-12-05T13:11:40;13.17;;;7.17;;
50880;SDS011;36858;47.832;-3.800;2022-12-05T13:14:11;12.97;;;7.17;;
50880;SDS011;36858;47.832;-3.800;2022-12-05T13:16:41;11.87;;;7.40;;
50880;SDS011;36858;47.832;-3.800;2022-12-05T13:22:03;15.73;;;8.37;;
50880;SDS011;36858;47.832;-3.800;2022-12-05T13:24:30;15.77;;;8.00;;
50880;SDS011;36858;47.832;-3.800;2022-12-05T13:26:58;11.77;;;8.17;;
50880;SDS011;36858;47.832;-3.800;2022-12-05T13:29:49;14.43;;;7.93;;
50880;SDS011;36858;47.832;-3.800;2022-12-05T13:32:32;14.63;;;7.87;;
50880;SDS011;36858;47.832;-3.800;2022-12-05T13:35:00;15.23;;;8.43;;
50880;SDS011;36858;47.832;-3.800;2022-12-05T13:38:11;13.17;;;7.20;;
50880;SDS011;36858;47.832;-3.800;2022-12-05T13:41:06;14.67;;;7.77;;
50880;SDS011;36858;47.832;-3.800;2022-12-05T13:43:52;15.43;;;8.23;;
50880;SDS011;36858;47.832;-3.800;2022-12-05T13:46:32;16.20;;;6.87;;
50880;SDS011;36858;47.832;-3.800;2022-12-05T13:49:04;13.83;;;8.00;;
50880;SDS011;36858;47.832;-3.800;2022-12-05T13:51:42;15.83;;;8.60;;
50880;SDS011;36858;47.832;-3.800;2022-12-05T14:07:54;14.10;;;8.20;;
50880;SDS011;36858;47.832;-3.800;2022-12-05T14:12:58;13.10;;;7.17;;
50880;SDS011;36858;47.832;-3.800;2022-12-05T14:18:04;15.23;;;8.83;;
50880;SDS011;36858;47.832;-3.800;2022-12-05T14:26:31;13.93;;;7.80;;
50880;SDS011;36858;47.832;-3.800;2022-12-05T14:29:29;11.67;;;7.40;;
50880;SDS011;36858;47.832;-3.800;2022-12-05T14:32:34;10.43;;;6.83;;
50880;SDS011;36858;47.832;-3.800;2022-12-05T14:35:14;11.73;;;7.13;;
50880;SDS011;36858;47.832;-3.800;2022-12-05T14:37:53;11.93;;;7.30;;
50880;SDS011;36858;47.832;-3.800;2022-12-05T14:40:34;11.77;;;7.10;;
50880;SDS011;36858;47.832;-3.800;2022-12-05T14:50:46;14.17;;;7.20;;
50880;SDS011;36858;47.832;-3.800;2022-12-05T14:56:02;12.00;;;6.73;;
50880;SDS011;36858;47.832;-3.800;2022-12-05T14:58:33;12.70;;;7.03;;
50880;SDS011;36858;47.832;-3.800;2022-12-05T15:06:59;12.30;;;7.03;;
50880;SDS011;36858;47.832;-3.800;2022-12-05T15:12:31;12.97;;;7.40;;
50880;SDS011;36858;47.832;-3.800;2022-12-05T15:18:24;11.30;;;6.40;;
50880;SDS011;36858;47.832;-3.800;2022-12-05T15:21:12;12.53;;;5.23;;
50880;SDS011;36858;47.832;-3.800;2022-12-05T15:24:03;10.67;;;6.63;;
50880;SDS011;36858;47.832;-3.800;2022-12-05T15:26:37;9.20;;;6.23;;
50880;SDS011;36858;47.832;-3.800;2022-12-05T15:40:14;8.67;;;5.20;;
50880;SDS011;36858;47.832;-3.800;2022-12-05T15:42:51;11.90;;;5.80;;
50880;SDS011;36858;47.832;-3.800;2022-12-05T15:45:26;9.97;;;5.97;;
50880;SDS011;36858;47.832;-3.800;2022-12-05T15:48:15;10.93;;;5.73;;
50880;SDS011;36858;47.832;-3.800;2022-12-05T15:50:48;7.67;;;4.23;;
50880;SDS011;36858;47.832;-3.800;2022-12-05T15:53:19;9.30;;;5.27;;
50880;SDS011;36858;47.832;-3.800;2022-12-05T15:56:11;9.53;;;5.07;;
50880;SDS011;36858;47.832;-3.800;2022-12-05T15:58:44;10.60;;;5.47;;
50880;SDS011;36858;47.832;-3.800;2022-12-05T16:01:19;10.10;;;5.83;;
50880;SDS011;36858;47.832;-3.800;2022-12-05T16:03:52;9.73;;;5.70;;
50880;SDS011;36858;47.832;-3.800;2022-12-05T16:06:24;9.70;;;5.10;;
50880;SDS011;36858;47.832;-3.800;2022-12-05T16:08:54;9.23;;;5.57;;
50880;SDS011;36858;47.832;-3.800;2022-12-05T16:11:22;9.57;;;5.60;;
50880;SDS011;36858;47.832;-3.800;2022-12-05T16:13:56;11.90;;;6.30;;
50880;SDS011;36858;47.832;-3.800;2022-12-05T16:16:26;10.10;;;6.03;;
50880;SDS011;36858;47.832;-3.800;2022-12-05T16:18:56;10.53;;;6.00;;
50880;SDS011;36858;47.832;-3.800;2022-12-05T16:24:12;10.60;;;6.03;;
50880;SDS011;36858;47.832;-3.800;2022-12-05T16:26:43;8.53;;;5.87;;
50880;SDS011;36858;47.832;-3.800;2022-12-05T16:29:24;11.00;;;5.83;;
50880;SDS011;36858;47.832;-3.800;2022-12-05T16:31:54;10.30;;;5.23;;
50880;SDS011;36858;47.832;-3.800;2022-12-05T16:34:26;9.47;;;5.73;;
50880;SDS011;36858;47.832;-3.800;2022-12-05T16:36:54;8.87;;;5.40;;
50880;SDS011;36858;47.832;-3.800;2022-12-05T16:39:22;9.73;;;5.97;;
50880;SDS011;36858;47.832;-3.800;2022-12-05T16:41:50;9.43;;;5.20;;
50880;SDS011;36858;47.832;-3.800;2022-12-05T16:46:54;10.57;;;5.87;;
50880;SDS011;36858;47.832;-3.800;2022-12-05T16:54:34;10.00;;;6.33;;
50880;SDS011;36858;47.832;-3.800;2022-12-05T16:57:01;10.57;;;5.90;;
50880;SDS011;36858;47.832;-3.800;2022-12-05T16:59:30;11.90;;;6.27;;
50880;SDS011;36858;47.832;-3.800;2022-12-05T17:01:58;10.97;;;5.90;;
50880;SDS011;36858;47.832;-3.800;2022-12-05T17:04:27;12.40;;;7.57;;
50880;SDS011;36858;47.832;-3.800;2022-12-05T17:06:54;12.53;;;7.80;;
50880;SDS011;36858;47.832;-3.800;2022-12-05T17:09:21;11.60;;;6.70;;
50880;SDS011;36858;47.832;-3.800;2022-12-05T17:11:49;13.67;;;7.57;;
50880;SDS011;36858;47.832;-3.800;2022-12-05T17:14:18;12.67;;;7.73;;
50880;SDS011;36858;47.832;-3.800;2022-12-05T17:16:45;13.07;;;7.87;;
50880;SDS011;36858;47.832;-3.800;2022-12-05T17:19:12;13.17;;;7.47;;
50880;SDS011;36858;47.832;-3.800;2022-12-05T17:21:40;16.27;;;8.47;;
50880;SDS011;36858;47.832;-3.800;2022-12-05T17:24:11;14.50;;;8.40;;
50880;SDS011;36858;47.832;-3.800;2022-12-05T17:26:41;13.90;;;8.47;;
50880;SDS011;36858;47.832;-3.800;2022-12-05T17:29:08;15.13;;;8.87;;
50880;SDS011;36858;47.832;-3.800;2022-12-05T17:31:36;19.93;;;9.47;;
50880;SDS011;36858;47.832;-3.800;2022-12-05T17:34:05;13.43;;;7.73;;
50880;SDS011;36858;47.832;-3.800;2022-12-05T17:36:39;14.43;;;9.10;;
50880;SDS011;36858;47.832;-3.800;2022-12-05T17:39:06;14.20;;;8.10;;
50880;SDS011;36858;47.832;-3.800;2022-12-05T17:41:34;14.03;;;7.70;;
50880;SDS011;36858;47.832;-3.800;2022-12-05T17:44:02;11.57;;;7.57;;
50880;SDS011;36858;47.832;-3.800;2022-12-05T17:46:30;12.43;;;7.77;;
50880;SDS011;36858;47.832;-3.800;2022-12-05T17:48:57;12.90;;;7.63;;
50880;SDS011;36858;47.832;-3.800;2022-12-05T17:51:24;14.40;;;7.40;;